ADDS TAF Data INFO
IDs: Format: Raw Decoded Include METARs

Data at: 1934 UTC 17 Jul 2018

KCNM 171853Z AUTO VRB04KT 10SM CLR 33/14 A3013 RMK AO2 SLP140 T03280139

KCNM 171720Z 1718/1818 16008KT P6SM FEW080